Herculina — 9HA3586 — position and weather

sailwx.info

Track history (hours):
 
Tides and Currents Weather Stations Pressure Air Temp Water Temp Dewpoint Dewpoint Depression Visibility Wind Speed Wind Dir Waves Ship Positions

Herculina

Last reported at 2018-Jan-21 23:44 UTC. Time now 2018-Jan-22 14:09 UTC.
Position N 43°44' E 007°26'.

Length 43 m; draft 3 m.

Type: Pleasure craft. MMSI: 229761000.

Date/timePositionNaut miles runAvg speedWind from/ knotsBaromVisibWave heightAir tempDewpointWater temp
2018-Jan-21 23:44N 43°44' E 007°26'5 0.2
2018-Jan-20 21:02N 43°40' E 007°22'113.5
2018-Jan-20 20:58N 43°40' E 007°21'613.3
2018-Jan-20 20:30N 43°35' E 007°16'813.2
2018-Jan-20 19:55N 43°28' E 007°10'512.7
2018-Jan-20 19:30N 43°24' E 007°05'612.6
2018-Jan-20 19:00N 43°20' E 006°60'9212.6
2018-Jan-20 11:43N 42°59' E 004°57'2513.6
2018-Jan-20 09:53N 42°58' E 004°23'227 9.7
2018-Jan-19 10:27N 39°29' E 002°25'612.6
2018-Jan-19 10:00N 39°27' E 002°32'713.3
2018-Jan-19 09:30N 39°31' E 002°39'1 1.8
2018-Jan-19 09:00N 39°32' E 002°39'2 3.7
2018-Jan-19 08:30N 39°30' E 002°40'2 3.4
2018-Jan-19 08:00N 39°32' E 002°39'2 0.9
2018-Jan-19 05:11N 39°34' E 002°38'0 0.0
2018-Jan-19 04:59N 39°34' E 002°38'0 0.0
2018-Jan-19 04:29N 39°34' E 002°38'0 0.0
2018-Jan-19 03:59N 39°34' E 002°38'0 0.0
2018-Jan-19 03:26N 39°34' E 002°38'0 0.0
2018-Jan-19 02:59N 39°34' E 002°38'0 0.0
2018-Jan-19 02:29N 39°34' E 002°38'0 0.0
2018-Jan-19 01:59N 39°34' E 002°38'0 0.0
2018-Jan-19 01:29N 39°34' E 002°38'0 0.0
2018-Jan-19 00:59N 39°34' E 002°38'0 0.0
2018-Jan-19 00:29N 39°34' E 002°38'0 0.0
2018-Jan-18 23:59N 39°34' E 002°38'0 0.0
2018-Jan-18 23:29N 39°34' E 002°38'0 0.0
2018-Jan-18 22:59N 39°34' E 002°38'0 0.0
2018-Jan-18 22:29N 39°34' E 002°38'0 0.0
2018-Jan-18 21:59N 39°34' E 002°38'0 0.0
2018-Jan-18 21:29N 39°34' E 002°38'0 0.0
2018-Jan-18 20:59N 39°34' E 002°38'0 0.0
2018-Jan-18 20:29N 39°34' E 002°38'0 0.0
2018-Jan-18 19:59N 39°34' E 002°38'0 0.0
2018-Jan-18 19:29N 39°34' E 002°38'0 0.0
2018-Jan-18 18:59N 39°34' E 002°38'0 0.0
2018-Jan-18 18:29N 39°34' E 002°38'0 0.0
2018-Jan-18 17:59N 39°34' E 002°38'0 0.0
2018-Jan-18 17:29N 39°34' E 002°38'0 0.0
2018-Jan-18 16:59N 39°34' E 002°38'0 0.0
2018-Jan-18 16:29N 39°34' E 002°38'0 0.0
2018-Jan-18 15:59N 39°34' E 002°38'0 0.0
2018-Jan-18 15:29N 39°34' E 002°38'0 0.0
2018-Jan-18 14:59N 39°34' E 002°38'0 0.0
2018-Jan-18 14:28N 39°34' E 002°38'0 0.0
2018-Jan-18 13:58N 39°34' E 002°38'0 0.0
2018-Jan-18 13:28N 39°34' E 002°38'0 0.0
2018-Jan-18 12:58N 39°34' E 002°38'0 0.0
2018-Jan-18 12:28N 39°34' E 002°38'0 0.0
2018-Jan-18 11:58N 39°34' E 002°38'0 0.0
2018-Jan-18 11:28N 39°34' E 002°38'0 0.0
2018-Jan-18 10:58N 39°34' E 002°38'0 0.0
2018-Jan-18 10:28N 39°34' E 002°38'0 0.0
2018-Jan-18 09:58N 39°34' E 002°38'0 0.0
2018-Jan-18 09:28N 39°34' E 002°38'0 0.0
2018-Jan-18 08:55N 39°34' E 002°38'0 0.0
2018-Jan-18 08:28N 39°34' E 002°38'0 0.0
2018-Jan-18 07:58N 39°34' E 002°38'0 0.0
2018-Jan-18 07:28N 39°34' E 002°38'0 0.0
2018-Jan-18 06:58N 39°34' E 002°38'0 0.0
2018-Jan-18 06:25N 39°34' E 002°38'0 0.0
2018-Jan-18 05:58N 39°34' E 002°38'0 0.0
2018-Jan-18 05:28N 39°34' E 002°38'0 0.0
2018-Jan-18 04:58N 39°34' E 002°38'0 0.0
2018-Jan-18 04:28N 39°34' E 002°38'0 0.0
2018-Jan-18 03:58N 39°34' E 002°38'0 0.0
2018-Jan-18 03:28N 39°34' E 002°38'0 0.0
2018-Jan-18 02:58N 39°34' E 002°38'0 0.0
2018-Jan-18 02:28N 39°34' E 002°38'0 0.0
2018-Jan-18 01:58N 39°34' E 002°38'0 0.0
2018-Jan-18 01:28N 39°34' E 002°38'0 0.0
2018-Jan-18 00:58N 39°34' E 002°38'0 0.0
2018-Jan-17 23:58N 39°34' E 002°38'0 0.1
2018-Jan-17 23:55N 39°34' E 002°38'  
2018-Jan-12 14:59N 39°34' E 002°38'0 0.0
2018-Jan-12 14:29N 39°34' E 002°38'0 0.0
2018-Jan-12 13:59N 39°34' E 002°38'0 0.0
2018-Jan-12 13:29N 39°34' E 002°38'0 0.0
2018-Jan-12 12:59N 39°34' E 002°38'0 0.0
2018-Jan-12 12:29N 39°34' E 002°38'0 0.0
2018-Jan-12 11:59N 39°34' E 002°38'0 0.0
2018-Jan-12 11:29N 39°34' E 002°38'0 0.0
2018-Jan-12 10:59N 39°34' E 002°38'0 0.0
2018-Jan-12 10:29N 39°34' E 002°38'0 0.0
2018-Jan-12 09:59N 39°34' E 002°38'0 0.0
2018-Jan-12 09:29N 39°34' E 002°38'0 0.0
2018-Jan-12 08:59N 39°34' E 002°38'0 0.0
2018-Jan-12 08:29N 39°34' E 002°38'0 0.0
2018-Jan-12 07:59N 39°34' E 002°38'0 0.0
2018-Jan-12 07:29N 39°34' E 002°38'0 0.0
2018-Jan-12 06:59N 39°34' E 002°38'0 0.0
2018-Jan-12 06:29N 39°34' E 002°38'0 0.0
2018-Jan-12 05:59N 39°34' E 002°38'0 0.0
2018-Jan-12 05:29N 39°34' E 002°38'0 0.0
2018-Jan-12 04:56N 39°34' E 002°38'0 0.0
2018-Jan-12 04:29N 39°34' E 002°38'0 0.0
2018-Jan-12 03:59N 39°34' E 002°38'0 0.0
2018-Jan-12 03:28N 39°34' E 002°38'0 0.0
2018-Jan-12 02:58N 39°34' E 002°38'0 0.0
2018-Jan-12 02:28N 39°34' E 002°38'0 0.0
2018-Jan-12 01:58N 39°34' E 002°38'0 0.0
2018-Jan-12 01:28N 39°34' E 002°38'0 0.0
2018-Jan-12 00:58N 39°34' E 002°38'0 0.0
2018-Jan-12 00:28N 39°34' E 002°38'0 0.0
2018-Jan-11 23:58N 39°34' E 002°38'  
Track history (hours):
 
Tides and Currents Weather Stations Pressure Air Temp Water Temp Dewpoint Dewpoint Depression Visibility Wind Speed Wind Dir Waves Ship Positions

Herculina

Last reported at 2018-Jan-21 23:44 UTC. Time now 2018-Jan-22 14:09 UTC.
Position N 43°44' E 007°26'.

Length 43 m; draft 3 m.

Type: Pleasure craft. MMSI: 229761000.

Date/timePositionNaut miles runAvg speedWind from/ knotsBaromVisibWave heightAir tempDewpointWater temp
2018-Jan-21 23:44N 43°44' E 007°26'5 0.2
2018-Jan-20 21:02N 43°40' E 007°22'113.5
2018-Jan-20 20:58N 43°40' E 007°21'613.3
2018-Jan-20 20:30N 43°35' E 007°16'813.2
2018-Jan-20 19:55N 43°28' E 007°10'512.7
2018-Jan-20 19:30N 43°24' E 007°05'612.6
2018-Jan-20 19:00N 43°20' E 006°60'9212.6
2018-Jan-20 11:43N 42°59' E 004°57'2513.6
2018-Jan-20 09:53N 42°58' E 004°23'227 9.7
2018-Jan-19 10:27N 39°29' E 002°25'612.6
2018-Jan-19 10:00N 39°27' E 002°32'713.3
2018-Jan-19 09:30N 39°31' E 002°39'1 1.8
2018-Jan-19 09:00N 39°32' E 002°39'2 3.7
2018-Jan-19 08:30N 39°30' E 002°40'2 3.4
2018-Jan-19 08:00N 39°32' E 002°39'2 0.9
2018-Jan-19 05:11N 39°34' E 002°38'0 0.0
2018-Jan-19 04:59N 39°34' E 002°38'0 0.0
2018-Jan-19 04:29N 39°34' E 002°38'0 0.0
2018-Jan-19 03:59N 39°34' E 002°38'0 0.0
2018-Jan-19 03:26N 39°34' E 002°38'0 0.0
2018-Jan-19 02:59N 39°34' E 002°38'0 0.0
2018-Jan-19 02:29N 39°34' E 002°38'0 0.0
2018-Jan-19 01:59N 39°34' E 002°38'0 0.0
2018-Jan-19 01:29N 39°34' E 002°38'0 0.0
2018-Jan-19 00:59N 39°34' E 002°38'0 0.0
2018-Jan-19 00:29N 39°34' E 002°38'0 0.0
2018-Jan-18 23:59N 39°34' E 002°38'0 0.0
2018-Jan-18 23:29N 39°34' E 002°38'0 0.0
2018-Jan-18 22:59N 39°34' E 002°38'0 0.0
2018-Jan-18 22:29N 39°34' E 002°38'0 0.0
2018-Jan-18 21:59N 39°34' E 002°38'0 0.0
2018-Jan-18 21:29N 39°34' E 002°38'0 0.0
2018-Jan-18 20:59N 39°34' E 002°38'0 0.0
2018-Jan-18 20:29N 39°34' E 002°38'0 0.0
2018-Jan-18 19:59N 39°34' E 002°38'0 0.0
2018-Jan-18 19:29N 39°34' E 002°38'0 0.0
2018-Jan-18 18:59N 39°34' E 002°38'0 0.0
2018-Jan-18 18:29N 39°34' E 002°38'0 0.0
2018-Jan-18 17:59N 39°34' E 002°38'0 0.0
2018-Jan-18 17:29N 39°34' E 002°38'0 0.0
2018-Jan-18 16:59N 39°34' E 002°38'0 0.0
2018-Jan-18 16:29N 39°34' E 002°38'0 0.0
2018-Jan-18 15:59N 39°34' E 002°38'0 0.0
2018-Jan-18 15:29N 39°34' E 002°38'0 0.0
2018-Jan-18 14:59N 39°34' E 002°38'0 0.0
2018-Jan-18 14:28N 39°34' E 002°38'0 0.0
2018-Jan-18 13:58N 39°34' E 002°38'0 0.0
2018-Jan-18 13:28N 39°34' E 002°38'0 0.0
2018-Jan-18 12:58N 39°34' E 002°38'0 0.0
2018-Jan-18 12:28N 39°34' E 002°38'0 0.0
2018-Jan-18 11:58N 39°34' E 002°38'0 0.0
2018-Jan-18 11:28N 39°34' E 002°38'0 0.0
2018-Jan-18 10:58N 39°34' E 002°38'0 0.0
2018-Jan-18 10:28N 39°34' E 002°38'0 0.0
2018-Jan-18 09:58N 39°34' E 002°38'0 0.0
2018-Jan-18 09:28N 39°34' E 002°38'0 0.0
2018-Jan-18 08:55N 39°34' E 002°38'0 0.0
2018-Jan-18 08:28N 39°34' E 002°38'0 0.0
2018-Jan-18 07:58N 39°34' E 002°38'0 0.0
2018-Jan-18 07:28N 39°34' E 002°38'0 0.0
2018-Jan-18 06:58N 39°34' E 002°38'0 0.0
2018-Jan-18 06:25N 39°34' E 002°38'0 0.0
2018-Jan-18 05:58N 39°34' E 002°38'0 0.0
2018-Jan-18 05:28N 39°34' E 002°38'0 0.0
2018-Jan-18 04:58N 39°34' E 002°38'0 0.0
2018-Jan-18 04:28N 39°34' E 002°38'0 0.0
2018-Jan-18 03:58N 39°34' E 002°38'0 0.0
2018-Jan-18 03:28N 39°34' E 002°38'0 0.0
2018-Jan-18 02:58N 39°34' E 002°38'0 0.0
2018-Jan-18 02:28N 39°34' E 002°38'0 0.0
2018-Jan-18 01:58N 39°34' E 002°38'0 0.0
2018-Jan-18 01:28N 39°34' E 002°38'0 0.0
2018-Jan-18 00:58N 39°34' E 002°38'0 0.0
2018-Jan-17 23:58N 39°34' E 002°38'0 0.1
2018-Jan-17 23:55N 39°34' E 002°38'  
2018-Jan-12 14:59N 39°34' E 002°38'0 0.0
2018-Jan-12 14:29N 39°34' E 002°38'0 0.0
2018-Jan-12 13:59N 39°34' E 002°38'0 0.0
2018-Jan-12 13:29N 39°34' E 002°38'0 0.0
2018-Jan-12 12:59N 39°34' E 002°38'0 0.0
2018-Jan-12 12:29N 39°34' E 002°38'0 0.0
2018-Jan-12 11:59N 39°34' E 002°38'0 0.0
2018-Jan-12 11:29N 39°34' E 002°38'0 0.0
2018-Jan-12 10:59N 39°34' E 002°38'0 0.0
2018-Jan-12 10:29N 39°34' E 002°38'0 0.0
2018-Jan-12 09:59N 39°34' E 002°38'0 0.0
2018-Jan-12 09:29N 39°34' E 002°38'0 0.0
2018-Jan-12 08:59N 39°34' E 002°38'0 0.0
2018-Jan-12 08:29N 39°34' E 002°38'0 0.0
2018-Jan-12 07:59N 39°34' E 002°38'0 0.0
2018-Jan-12 07:29N 39°34' E 002°38'0 0.0
2018-Jan-12 06:59N 39°34' E 002°38'0 0.0
2018-Jan-12 06:29N 39°34' E 002°38'0 0.0
2018-Jan-12 05:59N 39°34' E 002°38'0 0.0
2018-Jan-12 05:29N 39°34' E 002°38'0 0.0
2018-Jan-12 04:56N 39°34' E 002°38'0 0.0
2018-Jan-12 04:29N 39°34' E 002°38'0 0.0
2018-Jan-12 03:59N 39°34' E 002°38'0 0.0
2018-Jan-12 03:28N 39°34' E 002°38'0 0.0
2018-Jan-12 02:58N 39°34' E 002°38'0 0.0
2018-Jan-12 02:28N 39°34' E 002°38'0 0.0
2018-Jan-12 01:58N 39°34' E 002°38'0 0.0
2018-Jan-12 01:28N 39°34' E 002°38'0 0.0
2018-Jan-12 00:58N 39°34' E 002°38'0 0.0
2018-Jan-12 00:28N 39°34' E 002°38'0 0.0
2018-Jan-11 23:58N 39°34' E 002°38'  

Dump ship's entire track history